Frog Pond, North Carolina
Current Conditions -  °F | °C
As of 4:55 PM on Thursday 27 Nov 2014 (Local Time) from KVUJ Reporting Station
Broken Clouds Broken Clouds  
Wind Chill: 41°   Ceiling: 6000
Heat Index: 45°   Visibility: 10mi
Dew Point: 28°   Wind: 7mph
Humidity: 52%   Direction: 330°NNW
Pressure: 30.2"   Gusts: 17mph
Location:  35.237°N, 80.3328°W
Report Text: KVUJ 272155Z AUTO 33006G15KT 10SM BKN060 07/M02 A3020 RMK AO2 T00731020
Loading
Personal Weather Stations






























Interactive Weather Map New forecast layout! Learn more

10-Day Weather Forecast

Advertisements
Track Severe Weather on mobile